Flight Track Log - Related Links

Times and Time Zones

All times are in EST time to prevent confusion due to time zone crossing. See the PDT4108 flight status page for this flight to view local times or setup timezone preferences in your user account.

Time Position Orientation Groundspeed Altitude Reporting Facility
EST Latitude Longitude Course Direction KTS MPH feet Rate Location/Type
Sat 02:42:42 PM 39.2000 -76.6667 360° North 110 127 1,300  Level Potomac TRACON
Sat 02:43:42 PM 39.2333 -76.6667 360° North 136 157 2,800 1,400 Climbing Potomac TRACON
Sat 02:44:42 PM 39.2500 -76.6333 57° Northeast 174 200 4,100 1,100 Climbing Potomac TRACON
Sat 02:45:42 PM 39.2333 -76.5667 108° East 195 224 5,000 470 Climbing Potomac TRACON
Sat 02:46:37 PM 39.2000 -76.5167 131° Southeast 233 268 5,000  Level Potomac TRACON
Sat 02:47:37 PM 39.1833 -76.4333 104° East 241 277 5,000  Level Potomac TRACON
Sat 02:48:43 PM 39.1667 -76.3333 102° East 251 289 5,000  Level Potomac TRACON
Sat 02:49:38 PM 39.1667 -76.2500 90° East 257 296 5,000  Level Potomac TRACON
Sat 02:50:38 PM 39.2167 -76.2000 38° Northeast 227 261 5,000 -36 Level Potomac TRACON
Sat 02:52:26 PM 39.2833 -76.1000 49° Northeast 220 253 4,900 -36 Descending Philadelphia TRACON
Sat 02:53:26 PM 39.3167 -76.0333 57° Northeast 236 272 4,900  Level Philadelphia TRACON
Sat 02:54:32 PM 39.3500 -75.9333 67° East 239 275 4,900  Level Philadelphia TRACON
Sat 02:55:26 PM 39.3667 -75.8667 72° East 234 269 4,900  Level Philadelphia TRACON
Sat 02:56:20 PM 39.4000 -75.8000 57° Northeast 237 273 4,900  Level Philadelphia TRACON
Sat 02:57:20 PM 39.4167 -75.7167 75° East 238 274 4,900 50 Level Philadelphia TRACON
Sat 02:58:20 PM 39.4500 -75.6500 57° Northeast 238 274 5,000 50 Climbing Philadelphia TRACON
Sat 02:59:20 PM 39.4833 -75.5667 63° Northeast 235 270 5,000 -50 Level Philadelphia TRACON
Sat 03:00:20 PM 39.5000 -75.4833 75° East 233 268 4,900 -286 Descending Philadelphia TRACON
Sat 03:01:26 PM 39.5333 -75.4000 63° Northeast 246 283 4,400 -450 Descending Philadelphia TRACON
Sat 03:02:20 PM 39.5667 -75.3333 57° Northeast 256 295 4,000 -211 Descending Philadelphia TRACON
Sat 03:03:20 PM 39.6000 -75.2667 57° Northeast 204 235 4,000 -500 Level Philadelphia TRACON
Sat 03:04:20 PM 39.6500 -75.2333 27° Northeast 189 217 3,000 -1,000 Descending Philadelphia TRACON
Sat 03:05:14 PM 39.6833 -75.2000 38° Northeast 190 219 2,100 -632 Descending Philadelphia TRACON
Sat 03:06:14 PM 39.7333 -75.2000 360° North 162 186 1,800 -350 Descending Philadelphia TRACON
Sat 03:07:14 PM 39.7833 -75.2000 360° North 164 189 1,400 -350 Descending Philadelphia TRACON
Sat 03:08:14 PM 39.8333 -75.2167 346° North 149 171 1,100 -550 Descending Philadelphia TRACON
Sat 03:09:14 PM 39.8667 -75.2167 360° North 114 131 300 -800 Descending Philadelphia TRACON

Login

Don't have an account? Register now (free) for customized features, flight alerts, and more!